Time;durP1;ratioP1;P1;durP2;ratioP2;P2;SDS_P1;SDS_P2;PMS_P1;PMS_P2;Temp;Humidity;BMP_temperature;BMP_pressure;BME280_temperature;BME280_humidity;BME280_pressure;Samples;Min_cycle;Max_cycle;Signal;HPM_P1;HPM_P2
2022/08/17 00:01:36;;;;;;;8.17;5.50;;;;;;;;;;5031370;28;20014;-66
2022/08/17 00:04:02;;;;;;;11.17;5.43;;;;;;;;;;5031994;28;20080;-66
2022/08/17 00:06:28;;;;;;;11.30;5.18;;;;;;;;;;5031579;28;20728;-67
2022/08/17 00:08:55;;;;;;;10.68;5.15;;;;;;;;;;5030572;28;20105;-66
2022/08/17 00:11:22;;;;;;;14.25;5.18;;;;;;;;;;5029171;28;20385;-66
2022/08/17 00:13:49;;;;;;;7.97;5.03;;;;;;;;;;5031549;28;20092;-66
2022/08/17 00:16:20;;;;;;;12.65;5.05;;;;;;;;;;5013949;28;20497;-66
2022/08/17 00:18:46;;;;;;;14.07;5.10;;;;;;;;;;5031614;28;20452;-65
2022/08/17 00:21:11;;;;;;;11.48;4.95;;;;;;;;;;5031297;28;20097;-66
2022/08/17 00:23:38;;;;;;;12.05;4.97;;;;;;;;;;5029590;28;20017;-66
2022/08/17 00:26:03;;;;;;;8.65;4.82;;;;;;;;;;5022665;28;20034;-66
2022/08/17 00:28:28;;;;;;;10.50;5.30;;;;;;;;;;5031380;28;20040;-65
2022/08/17 00:30:54;;;;;;;9.65;5.15;;;;;;;;;;5022620;28;20021;-65
2022/08/17 00:33:24;;;;;;;8.32;5.13;;;;;;;;;;5030984;28;20052;-65
2022/08/17 00:35:50;;;;;;;10.80;5.55;;;;;;;;;;5031005;28;20022;-66
2022/08/17 00:38:15;;;;;;;8.85;6.10;;;;;;;;;;5026091;28;20093;-65
2022/08/17 00:40:46;;;;;;;6.87;4.30;;;;;;;;;;5023781;28;20044;-65
2022/08/17 00:43:31;;;;;;;9.02;4.22;;;;;;;;;;5030010;28;20264;-66
2022/08/17 00:45:57;;;;;;;9.45;5.13;;;;;;;;;;5028959;28;20186;-66
2022/08/17 00:48:22;;;;;;;8.20;4.80;;;;;;;;;;5029996;28;20470;-67
2022/08/17 00:51:06;;;;;;;11.63;4.43;;;;;;;;;;5030201;28;20029;-66
2022/08/17 00:53:36;;;;;;;8.32;4.70;;;;;;;;;;5029980;28;20306;-67
2022/08/17 00:56:03;;;;;;;6.53;3.95;;;;;;;;;;5028796;28;20030;-65
2022/08/17 00:58:29;;;;;;;8.82;4.53;;;;;;;;;;5030435;28;20515;-65
2022/08/17 01:00:54;;;;;;;7.38;4.68;;;;;;;;;;5030429;28;20104;-66
2022/08/17 01:03:24;;;;;;;8.20;4.68;;;;;;;;;;5028092;28;20021;-65
2022/08/17 01:05:50;;;;;;;8.10;4.85;;;;;;;;;;5028746;28;20021;-66
2022/08/17 01:08:16;;;;;;;6.22;4.68;;;;;;;;;;5028298;28;20032;-66
2022/08/17 01:10:43;;;;;;;8.10;5.07;;;;;;;;;;5029819;28;20032;-65
2022/08/17 01:13:10;;;;;;;11.90;5.13;;;;;;;;;;5029104;28;20040;-66
2022/08/17 01:15:36;;;;;;;9.30;5.05;;;;;;;;;;5025875;28;20068;-66
2022/08/17 01:18:02;;;;;;;10.82;4.95;;;;;;;;;;5030592;28;20033;-66
2022/08/17 01:20:27;;;;;;;5.93;3.95;;;;;;;;;;5029718;28;20393;-66
2022/08/17 01:22:52;;;;;;;10.02;4.60;;;;;;;;;;5030299;28;20021;-66
2022/08/17 01:25:18;;;;;;;7.22;4.38;;;;;;;;;;5029625;28;20033;-67
2022/08/17 01:27:43;;;;;;;9.13;4.63;;;;;;;;;;5027214;28;20018;-66
2022/08/17 01:30:10;;;;;;;8.23;4.50;;;;;;;;;;5028370;28;20421;-65
2022/08/17 01:32:35;;;;;;;9.75;4.78;;;;;;;;;;5020366;28;20324;-66
2022/08/17 01:35:01;;;;;;;9.63;4.67;;;;;;;;;;5029444;28;20030;-65
2022/08/17 01:37:31;;;;;;;7.30;4.60;;;;;;;;;;5030465;28;20248;-66
2022/08/17 01:39:59;;;;;;;13.38;4.82;;;;;;;;;;5028752;28;20478;-65
2022/08/17 01:42:28;;;;;;;8.30;5.00;;;;;;;;;;5027327;28;20110;-65
2022/08/17 01:44:55;;;;;;;10.20;5.07;;;;;;;;;;5028627;28;20660;-66
2022/08/17 01:47:20;;;;;;;7.07;5.40;;;;;;;;;;5032987;28;20071;-65
2022/08/17 01:49:46;;;;;;;8.63;4.57;;;;;;;;;;5033026;28;20037;-66
2022/08/17 01:52:11;;;;;;;8.20;5.07;;;;;;;;;;5028370;28;20029;-66
2022/08/17 01:54:38;;;;;;;8.07;4.85;;;;;;;;;;5032738;28;20030;-66
2022/08/17 01:57:04;;;;;;;10.90;5.78;;;;;;;;;;5031728;28;20175;-65
2022/08/17 01:59:29;;;;;;;11.68;4.88;;;;;;;;;;5032617;28;20521;-66
2022/08/17 02:01:54;;;;;;;7.97;4.83;;;;;;;;;;5032458;28;20025;-65
2022/08/17 02:04:19;;;;;;;7.40;4.43;;;;;;;;;;5031782;28;20775;-65
2022/08/17 02:06:44;;;;;;;7.47;4.70;;;;;;;;;;5032405;28;20029;-66
2022/08/17 02:09:10;;;;;;;9.70;5.35;;;;;;;;;;5032989;28;20373;-66
2022/08/17 02:11:37;;;;;;;7.35;4.82;;;;;;;;;;5033449;28;20024;-66
2022/08/17 02:14:03;;;;;;;7.53;5.18;;;;;;;;;;5032918;28;20466;-66
2022/08/17 02:16:28;;;;;;;7.18;4.55;;;;;;;;;;5032461;28;20025;-66
2022/08/17 02:18:54;;;;;;;9.02;5.55;;;;;;;;;;5032999;28;20386;-66
2022/08/17 02:21:19;;;;;;;9.02;5.22;;;;;;;;;;5032495;28;20068;-65
2022/08/17 02:23:47;;;;;;;9.60;5.77;;;;;;;;;;5032913;28;20071;-66
2022/08/17 02:26:12;;;;;;;6.20;5.15;;;;;;;;;;5024993;28;20032;-66
2022/08/17 02:28:37;;;;;;;10.00;5.10;;;;;;;;;;5034147;28;20025;-66
2022/08/17 02:31:04;;;;;;;7.40;5.07;;;;;;;;;;5031642;28;20028;-66
2022/08/17 02:33:30;;;;;;;10.68;5.43;;;;;;;;;;5032207;28;20307;-67
2022/08/17 02:35:56;;;;;;;8.02;4.57;;;;;;;;;;5032325;28;20060;-66
2022/08/17 02:38:21;;;;;;;6.97;4.60;;;;;;;;;;5032501;28;20025;-66
2022/08/17 02:40:47;;;;;;;11.30;5.20;;;;;;;;;;5031843;28;20083;-66
2022/08/17 02:43:12;;;;;;;8.80;5.37;;;;;;;;;;5033427;28;20275;-65
2022/08/17 02:45:38;;;;;;;7.07;4.68;;;;;;;;;;5030251;28;20284;-65
2022/08/17 02:48:04;;;;;;;7.45;4.72;;;;;;;;;;5031602;28;20026;-65
2022/08/17 02:50:29;;;;;;;7.78;5.18;;;;;;;;;;5032128;28;20022;-64
2022/08/17 02:52:55;;;;;;;9.35;4.93;;;;;;;;;;5031989;28;20028;-66
2022/08/17 02:55:25;;;;;;;7.22;4.97;;;;;;;;;;5031656;28;20590;-66
2022/08/17 02:57:51;;;;;;;7.78;4.90;;;;;;;;;;5031967;28;20083;-66
2022/08/17 03:00:19;;;;;;;9.40;4.68;;;;;;;;;;5029861;28;20117;-66
2022/08/17 03:02:45;;;;;;;7.65;4.90;;;;;;;;;;5032447;28;20107;-65
2022/08/17 03:05:11;;;;;;;11.40;5.23;;;;;;;;;;5032698;28;20092;-65
2022/08/17 03:07:37;;;;;;;7.00;4.53;;;;;;;;;;5031849;28;20707;-65
2022/08/17 03:10:03;;;;;;;8.10;4.63;;;;;;;;;;5031902;28;20120;-66
2022/08/17 03:12:31;;;;;;;9.73;5.70;;;;;;;;;;5031018;28;20057;-65
2022/08/17 03:14:56;;;;;;;7.18;5.38;;;;;;;;;;5031224;28;20545;-67
2022/08/17 03:17:22;;;;;;;10.60;4.82;;;;;;;;;;5031639;28;20097;-66
2022/08/17 03:19:47;;;;;;;7.10;4.78;;;;;;;;;;5031711;28;20018;-67
2022/08/17 03:22:12;;;;;;;8.33;5.57;;;;;;;;;;5032121;28;20016;-66
2022/08/17 03:24:37;;;;;;;9.17;5.13;;;;;;;;;;5031532;28;20268;-66
2022/08/17 03:27:02;;;;;;;8.07;5.10;;;;;;;;;;5031293;28;20958;-66
2022/08/17 03:29:28;;;;;;;8.38;5.45;;;;;;;;;;5032141;28;20279;-66
2022/08/17 03:31:53;;;;;;;6.00;4.77;;;;;;;;;;5030344;28;20025;-66
2022/08/17 03:34:18;;;;;;;11.43;5.30;;;;;;;;;;5031282;28;20311;-66
2022/08/17 03:36:43;;;;;;;10.45;5.32;;;;;;;;;;5029607;28;20048;-67
2022/08/17 03:39:09;;;;;;;9.67;5.20;;;;;;;;;;5031237;28;20021;-65
2022/08/17 03:41:34;;;;;;;10.63;5.57;;;;;;;;;;5028138;28;20386;-67
2022/08/17 03:44:00;;;;;;;12.65;5.32;;;;;;;;;;5028646;28;20029;-65
2022/08/17 03:57:21;;;;;;;7.18;4.68;;;;;;;;;;5031263;28;20037;-66
2022/08/17 03:59:46;;;;;;;7.50;4.35;;;;;;;;;;5030860;28;20025;-64
2022/08/17 04:02:16;;;;;;;9.18;4.82;;;;;;;;;;5026823;28;20029;-66
2022/08/17 04:04:41;;;;;;;8.40;3.72;;;;;;;;;;5030913;28;20482;-66
2022/08/17 04:07:06;;;;;;;7.73;3.53;;;;;;;;;;5029874;28;20036;-66
2022/08/17 04:09:32;;;;;;;7.15;4.15;;;;;;;;;;5029971;28;20033;-66
2022/08/17 04:11:57;;;;;;;6.28;4.28;;;;;;;;;;5028746;28;20033;-66
2022/08/17 04:14:23;;;;;;;7.60;4.60;;;;;;;;;;5030972;28;20026;-66
2022/08/17 04:16:48;;;;;;;12.27;4.18;;;;;;;;;;5030467;28;20469;-66
2022/08/17 04:19:13;;;;;;;5.20;4.17;;;;;;;;;;5030483;28;20034;-68
2022/08/17 04:21:39;;;;;;;7.32;3.63;;;;;;;;;;5029799;28;20104;-65
2022/08/17 04:24:04;;;;;;;6.68;3.55;;;;;;;;;;5030113;28;20036;-65
2022/08/17 04:26:30;;;;;;;6.50;4.30;;;;;;;;;;5029866;28;20063;-66
2022/08/17 04:28:57;;;;;;;7.57;3.90;;;;;;;;;;5030911;28;20017;-66
2022/08/17 04:31:23;;;;;;;5.75;3.60;;;;;;;;;;5029958;28;20025;-65
2022/08/17 04:33:48;;;;;;;6.85;3.67;;;;;;;;;;5022838;28;20029;-65
2022/08/17 04:36:14;;;;;;;5.97;3.73;;;;;;;;;;5030077;28;20078;-66
2022/08/17 04:38:40;;;;;;;7.05;3.67;;;;;;;;;;5029414;28;20272;-66
2022/08/17 04:43:53;;;;;;;5.03;3.67;;;;;;;;;;5030676;28;20040;-66
2022/08/17 04:46:20;;;;;;;7.18;3.35;;;;;;;;;;5030417;28;20398;-66
2022/08/17 04:48:48;;;;;;;6.38;4.30;;;;;;;;;;5029650;28;20059;-65
2022/08/17 04:51:17;;;;;;;8.63;3.88;;;;;;;;;;5024974;28;20168;-65
2022/08/17 04:53:44;;;;;;;8.40;4.28;;;;;;;;;;5029534;28;20033;-65
2022/08/17 04:56:09;;;;;;;8.52;4.25;;;;;;;;;;5033665;28;20033;-65
2022/08/17 04:58:35;;;;;;;6.47;3.15;;;;;;;;;;5029795;28;20027;-65
2022/08/17 05:01:00;;;;;;;9.87;4.07;;;;;;;;;;5030305;28;20021;-65
2022/08/17 05:03:25;;;;;;;9.10;4.10;;;;;;;;;;5030925;28;20026;-65
2022/08/17 05:05:50;;;;;;;6.38;3.88;;;;;;;;;;5030790;28;20318;-66
2022/08/17 05:08:17;;;;;;;5.55;4.15;;;;;;;;;;5027848;28;20457;-65
2022/08/17 05:10:42;;;;;;;8.80;4.53;;;;;;;;;;5029868;28;20440;-65
2022/08/17 05:13:09;;;;;;;9.05;4.07;;;;;;;;;;5027942;28;20021;-66
2022/08/17 05:15:36;;;;;;;10.20;3.55;;;;;;;;;;5011416;28;20040;-66
2022/08/17 05:18:01;;;;;;;8.48;4.45;;;;;;;;;;5029458;28;20079;-66
2022/08/17 05:20:27;;;;;;;9.38;3.92;;;;;;;;;;5028568;28;20021;-66
2022/08/17 05:22:54;;;;;;;6.13;3.50;;;;;;;;;;5027415;28;20029;-66
2022/08/17 05:25:20;;;;;;;7.43;3.70;;;;;;;;;;5028682;28;20457;-66
2022/08/17 05:27:46;;;;;;;6.22;3.75;;;;;;;;;;5029106;28;20393;-66
2022/08/17 05:30:11;;;;;;;8.30;3.17;;;;;;;;;;5028491;28;20014;-66
2022/08/17 05:32:37;;;;;;;9.13;3.67;;;;;;;;;;5023840;28;20509;-65
2022/08/17 05:35:02;;;;;;;4.13;3.20;;;;;;;;;;5028914;28;20087;-65
2022/08/17 05:37:28;;;;;;;10.35;4.00;;;;;;;;;;5027457;28;20722;-66
2022/08/17 05:39:53;;;;;;;5.33;3.40;;;;;;;;;;5027707;28;20021;-66
2022/08/17 05:42:18;;;;;;;5.70;4.05;;;;;;;;;;5027800;28;20136;-65
2022/08/17 05:44:43;;;;;;;5.38;3.22;;;;;;;;;;5029047;28;20090;-65
2022/08/17 05:47:09;;;;;;;6.57;3.27;;;;;;;;;;5029553;28;20627;-66
2022/08/17 05:49:34;;;;;;;9.13;3.80;;;;;;;;;;5046770;22;20052;-66
2022/08/17 05:52:05;;;;;;;10.15;3.70;;;;;;;;;;5046295;28;20029;-65
2022/08/17 05:54:38;;;;;;;8.15;3.90;;;;;;;;;;5046967;28;20116;-64
2022/08/17 05:57:22;;;;;;;6.38;3.55;;;;;;;;;;5047105;28;20061;-65
2022/08/17 06:00:06;;;;;;;7.45;3.33;;;;;;;;;;5045214;28;20465;-65
2022/08/17 06:02:44;;;;;;;6.22;3.55;;;;;;;;;;5046622;28;20464;-65
2022/08/17 06:05:15;;;;;;;6.53;4.03;;;;;;;;;;5048353;28;20490;-65
2022/08/17 06:08:00;;;;;;;5.43;3.25;;;;;;;;;;5045603;28;20036;-65
2022/08/17 06:10:31;;;;;;;10.43;3.50;;;;;;;;;;5012228;28;20033;-65
2022/08/17 06:13:14;;;;;;;4.65;3.67;;;;;;;;;;5046394;28;20013;-65
2022/08/17 06:15:42;;;;;;;8.73;4.55;;;;;;;;;;5047647;28;20112;-65
2022/08/17 06:18:09;;;;;;;8.98;3.53;;;;;;;;;;5048679;28;20028;-66
2022/08/17 06:20:40;;;;;;;7.18;4.40;;;;;;;;;;5046641;28;20017;-65
2022/08/17 06:23:09;;;;;;;7.18;4.28;;;;;;;;;;5047992;28;20033;-66
2022/08/17 06:25:37;;;;;;;8.90;4.45;;;;;;;;;;5047530;28;20024;-65
2022/08/17 06:28:11;;;;;;;10.48;4.15;;;;;;;;;;5046616;28;20029;-64
2022/08/17 06:30:47;;;;;;;14.50;4.40;;;;;;;;;;5044884;28;20025;-66
2022/08/17 06:33:18;;;;;;;13.15;3.97;;;;;;;;;;5048943;28;20025;-65
2022/08/17 06:35:58;;;;;;;11.00;3.90;;;;;;;;;;5048696;28;20383;-67
2022/08/17 06:38:32;;;;;;;18.80;4.13;;;;;;;;;;5047881;28;20017;-64
2022/08/17 06:41:00;;;;;;;12.13;4.10;;;;;;;;;;5050676;28;20473;-65
2022/08/17 06:43:25;;;;;;;10.30;4.22;;;;;;;;;;5052652;28;20079;-65
2022/08/17 06:46:05;;;;;;;7.78;3.92;;;;;;;;;;5051443;28;20029;-64
2022/08/17 06:48:34;;;;;;;16.80;4.10;;;;;;;;;;5049791;28;20043;-65
2022/08/17 06:51:04;;;;;;;8.25;3.88;;;;;;;;;;5050918;28;20435;-65
2022/08/17 06:53:37;;;;;;;9.77;4.10;;;;;;;;;;5044892;28;20080;-65
2022/08/17 06:56:05;;;;;;;11.55;4.32;;;;;;;;;;5048140;28;20055;-66
2022/08/17 06:58:32;;;;;;;8.65;4.50;;;;;;;;;;5052115;28;20017;-63
2022/08/17 07:01:01;;;;;;;11.98;4.43;;;;;;;;;;5050031;28;20490;-64
2022/08/17 07:03:36;;;;;;;13.27;3.90;;;;;;;;;;5050707;28;20017;-64
2022/08/17 07:06:21;;;;;;;10.95;3.58;;;;;;;;;;5050891;28;20388;-65
2022/08/17 07:08:54;;;;;;;7.53;3.28;;;;;;;;;;5051437;28;20044;-64
2022/08/17 07:11:24;;;;;;;14.95;3.25;;;;;;;;;;5050776;28;20039;-66
2022/08/17 07:14:06;;;;;;;14.02;3.53;;;;;;;;;;5048239;28;21677;-65
2022/08/17 07:16:40;;;;;;;9.95;3.55;;;;;;;;;;5051288;28;20053;-64
2022/08/17 07:19:06;;;;;;;12.48;4.72;;;;;;;;;;5047417;28;20108;-64
2022/08/17 07:21:31;;;;;;;15.98;7.57;;;;;;;;;;5051781;28;20549;-65
2022/08/17 07:24:10;;;;;;;11.90;6.85;;;;;;;;;;5052405;28;20103;-66
2022/08/17 07:26:37;;;;;;;12.32;4.95;;;;;;;;;;5037310;28;20465;-65
2022/08/17 07:29:03;;;;;;;12.70;4.90;;;;;;;;;;5050873;28;20025;-66
2022/08/17 07:31:29;;;;;;;18.38;5.40;;;;;;;;;;5049099;28;20025;-65
2022/08/17 07:34:00;;;;;;;14.48;4.55;;;;;;;;;;5050238;28;20021;-65
2022/08/17 07:36:25;;;;;;;11.82;4.85;;;;;;;;;;5049610;28;20033;-66
2022/08/17 07:38:56;;;;;;;12.18;4.38;;;;;;;;;;5051108;28;20017;-66
2022/08/17 07:41:22;;;;;;;8.35;4.25;;;;;;;;;;5044023;28;20035;-65
2022/08/17 07:43:48;;;;;;;10.68;5.10;;;;;;;;;;5049660;28;20370;-64
2022/08/17 07:49:06;;;;;;;10.13;5.63;;;;;;;;;;5048574;28;20120;-64
2022/08/17 07:51:34;;;;;;;17.13;5.85;;;;;;;;;;5049863;28;20035;-64
2022/08/17 07:54:01;;;;;;;10.07;5.32;;;;;;;;;;5049955;28;20032;-64
2022/08/17 07:56:35;;;;;;;13.82;5.85;;;;;;;;;;5050692;28;20104;-64
2022/08/17 07:59:11;;;;;;;18.50;5.30;;;;;;;;;;5049018;28;20029;-64
2022/08/17 08:01:36;;;;;;;15.75;6.05;;;;;;;;;;5050813;28;20017;-64
2022/08/17 08:04:22;;;;;;;11.85;5.82;;;;;;;;;;5048052;28;20032;-64
2022/08/17 08:06:53;;;;;;;19.52;6.32;;;;;;;;;;5049749;28;20044;-64
2022/08/17 08:09:29;;;;;;;12.68;5.97;;;;;;;;;;5048799;28;20082;-66
2022/08/17 08:11:54;;;;;;;16.45;6.75;;;;;;;;;;5046935;28;20021;-64
2022/08/17 08:14:32;;;;;;;16.33;6.13;;;;;;;;;;5048610;28;20457;-66
2022/08/17 08:16:59;;;;;;;14.85;7.07;;;;;;;;;;5047753;28;20021;-64
2022/08/17 08:19:25;;;;;;;15.10;8.13;;;;;;;;;;5049502;28;20176;-65
2022/08/17 08:21:58;;;;;;;14.43;7.32;;;;;;;;;;5048354;28;20047;-65
2022/08/17 08:24:37;;;;;;;23.55;6.65;;;;;;;;;;5048516;28;20044;-64
2022/08/17 08:27:06;;;;;;;19.30;7.82;;;;;;;;;;5048065;28;20259;-65
2022/08/17 08:29:40;;;;;;;10.73;7.25;;;;;;;;;;5048629;28;20484;-64
2022/08/17 08:32:13;;;;;;;16.02;8.77;;;;;;;;;;5046378;28;20023;-65
2022/08/17 08:34:57;;;;;;;17.67;8.98;;;;;;;;;;5047729;28;20021;-67
2022/08/17 08:37:30;;;;;;;16.85;7.88;;;;;;;;;;5050930;28;20462;-64
2022/08/17 08:40:07;;;;;;;17.15;8.70;;;;;;;;;;5047550;28;20056;-65
2022/08/17 08:42:51;;;;;;;14.10;8.20;;;;;;;;;;5042596;28;20021;-66
2022/08/17 08:45:16;;;;;;;18.45;8.43;;;;;;;;;;5049196;28;20503;-65
2022/08/17 08:47:50;;;;;;;14.38;8.43;;;;;;;;;;5046624;28;20032;-66
2022/08/17 08:50:28;;;;;;;16.33;8.63;;;;;;;;;;5044370;28;20759;-67
2022/08/17 08:52:59;;;;;;;13.77;9.10;;;;;;;;;;5043482;28;20040;-66
2022/08/17 08:55:43;;;;;;;14.10;8.40;;;;;;;;;;5049382;28;20021;-64
2022/08/17 08:58:12;;;;;;;16.27;9.07;;;;;;;;;;5048011;28;20465;-64
2022/08/17 09:00:42;;;;;;;14.45;8.95;;;;;;;;;;5042628;28;20116;-65
2022/08/17 09:03:07;;;;;;;17.00;8.73;;;;;;;;;;5047561;28;20373;-64
2022/08/17 09:05:41;;;;;;;16.20;8.93;;;;;;;;;;5049988;28;20017;-65
2022/08/17 09:08:09;;;;;;;17.38;9.07;;;;;;;;;;5049579;28;20409;-64
2022/08/17 09:10:51;;;;;;;18.48;9.45;;;;;;;;;;5046289;28;20539;-65
2022/08/17 09:13:20;;;;;;;21.95;9.20;;;;;;;;;;5046878;28;20024;-65
2022/08/17 09:15:48;;;;;;;16.00;9.88;;;;;;;;;;5046600;28;20024;-66
2022/08/17 09:18:26;;;;;;;16.27;10.65;;;;;;;;;;5046706;28;20016;-64
2022/08/17 09:20:54;;;;;;;16.75;9.70;;;;;;;;;;5046797;28;20020;-66
2022/08/17 09:23:25;;;;;;;14.35;8.88;;;;;;;;;;5048839;28;20453;-64
2022/08/17 09:25:56;;;;;;;14.13;9.38;;;;;;;;;;5048410;28;20036;-64
2022/08/17 09:28:27;;;;;;;21.02;10.00;;;;;;;;;;5047784;28;20021;-64
2022/08/17 09:31:01;;;;;;;18.92;9.75;;;;;;;;;;5045691;28;20032;-66
2022/08/17 09:33:28;;;;;;;23.02;9.52;;;;;;;;;;5047387;28;20472;-64
2022/08/17 09:36:00;;;;;;;23.08;9.68;;;;;;;;;;5047727;28;20345;-64
2022/08/17 09:38:51;;;;;;;19.95;10.85;;;;;;;;;;5046401;28;20021;-64
2022/08/17 09:41:30;;;;;;;15.60;9.52;;;;;;;;;;5047177;28;20029;-64
2022/08/17 09:44:12;;;;;;;24.83;9.48;;;;;;;;;;5046696;28;20024;-66
2022/08/17 09:46:49;;;;;;;21.70;10.32;;;;;;;;;;5044041;28;20485;-65
2022/08/17 09:49:29;;;;;;;15.73;9.45;;;;;;;;;;5045899;28;20469;-64
2022/08/17 09:52:16;;;;;;;18.33;10.20;;;;;;;;;;5044139;28;20036;-65
2022/08/17 09:54:41;;;;;;;20.00;10.35;;;;;;;;;;5046510;28;20025;-65
2022/08/17 09:57:12;;;;;;;18.13;9.90;;;;;;;;;;5049893;28;20098;-65
2022/08/17 09:59:56;;;;;;;20.35;10.18;;;;;;;;;;5044387;28;20492;-64
2022/08/17 10:02:36;;;;;;;19.88;10.75;;;;;;;;;;5046441;28;20044;-65
2022/08/17 10:05:05;;;;;;;24.48;11.90;;;;;;;;;;5043763;28;20021;-66
2022/08/17 10:07:38;;;;;;;17.88;11.48;;;;;;;;;;5053365;28;20449;-65
2022/08/17 10:10:03;;;;;;;20.02;11.05;;;;;;;;;;5051459;28;20484;-65
2022/08/17 10:12:41;;;;;;;21.37;12.07;;;;;;;;;;5051422;28;20025;-64
2022/08/17 10:15:09;;;;;;;25.13;11.77;;;;;;;;;;5052495;28;20378;-65
2022/08/17 10:17:38;;;;;;;21.10;11.02;;;;;;;;;;5050560;28;20023;-65
2022/08/17 10:20:22;;;;;;;22.73;11.93;;;;;;;;;;5050613;28;20473;-65
2022/08/17 10:28:42;;;;;;;18.77;11.23;;;;;;;;;;4990403;28;20026;-65
2022/08/17 10:31:09;;;;;;;17.98;11.30;;;;;;;;;;5039319;28;20052;-65
2022/08/17 10:33:51;;;;;;;17.60;11.63;;;;;;;;;;5050424;28;20186;-66
2022/08/17 10:36:25;;;;;;;23.52;13.25;;;;;;;;;;5051492;28;20520;-66
2022/08/17 10:39:10;;;;;;;25.13;11.77;;;;;;;;;;5049559;28;20079;-64
2022/08/17 10:41:41;;;;;;;19.88;11.65;;;;;;;;;;5052458;28;20029;-65
2022/08/17 10:44:10;;;;;;;18.98;11.20;;;;;;;;;;5050289;28;20032;-66
2022/08/17 10:46:50;;;;;;;22.45;12.00;;;;;;;;;;5051368;28;20029;-65
2022/08/17 10:49:16;;;;;;;20.98;11.73;;;;;;;;;;5049779;28;20070;-65
2022/08/17 10:51:41;;;;;;;20.92;12.25;;;;;;;;;;5046374;28;20028;-64
2022/08/17 10:54:25;;;;;;;20.67;12.57;;;;;;;;;;5048981;28;20044;-65
2022/08/17 10:56:52;;;;;;;21.00;13.52;;;;;;;;;;5048714;28;20052;-65
2022/08/17 10:59:37;;;;;;;19.83;13.45;;;;;;;;;;5051418;28;20116;-65
2022/08/17 11:02:08;;;;;;;20.70;12.18;;;;;;;;;;5051170;28;20459;-64
2022/08/17 11:04:42;;;;;;;23.27;12.38;;;;;;;;;;5027222;28;20013;-65
2022/08/17 11:07:15;;;;;;;17.33;12.48;;;;;;;;;;5047744;28;20052;-64
2022/08/17 11:09:51;;;;;;;24.75;14.13;;;;;;;;;;5048516;28;20029;-65
2022/08/17 11:12:25;;;;;;;23.98;14.18;;;;;;;;;;5047655;28;20024;-65
2022/08/17 11:14:56;;;;;;;28.35;14.05;;;;;;;;;;5050138;28;20067;-66
2022/08/17 11:17:40;;;;;;;22.05;14.35;;;;;;;;;;5048035;28;20456;-64
2022/08/17 11:20:20;;;;;;;27.40;16.95;;;;;;;;;;5046809;28;20024;-64
2022/08/17 11:22:56;;;;;;;20.63;15.02;;;;;;;;;;5048985;28;20021;-64
2022/08/17 11:25:33;;;;;;;28.08;16.02;;;;;;;;;;5050197;28;20025;-65
2022/08/17 11:28:14;;;;;;;22.40;14.85;;;;;;;;;;5050463;28;20420;-65
2022/08/17 11:30:43;;;;;;;27.00;14.52;;;;;;;;;;5051225;28;20086;-64
2022/08/17 11:33:27;;;;;;;21.38;13.82;;;;;;;;;;5051276;28;20009;-64
2022/08/17 11:35:58;;;;;;;23.30;15.25;;;;;;;;;;5055284;28;20086;-65
2022/08/17 11:38:44;;;;;;;19.77;13.90;;;;;;;;;;5051253;28;20016;-65
2022/08/17 11:41:26;;;;;;;22.88;14.13;;;;;;;;;;5050037;28;20033;-64
2022/08/17 11:44:10;;;;;;;24.15;14.82;;;;;;;;;;5048163;28;20362;-64
2022/08/17 11:52:46;;;;;;;25.25;15.88;;;;;;;;;;5049489;28;20052;-64
2022/08/17 11:55:33;;;;;;;27.48;15.07;;;;;;;;;;5044440;28;20024;-66
2022/08/17 11:58:05;;;;;;;23.63;14.25;;;;;;;;;;5050102;28;20024;-66
2022/08/17 12:00:45;;;;;;;24.50;15.93;;;;;;;;;;5046406;28;20015;-66
2022/08/17 12:03:23;;;;;;;26.75;16.48;;;;;;;;;;5052261;28;20374;-66
2022/08/17 12:05:49;;;;;;;28.48;15.93;;;;;;;;;;5051375;28;20029;-66
2022/08/17 12:08:19;;;;;;;25.10;14.93;;;;;;;;;;5051440;28;20427;-66
2022/08/17 12:10:44;;;;;;;;;;;;;;;;;;5050284;28;20424;-65
2022/08/17 12:13:11;;;;;;;23.85;15.48;;;;;;;;;;5051910;28;19931;-66
2022/08/17 12:15:48;;;;;;;31.15;15.82;;;;;;;;;;5050797;28;20033;-65
2022/08/17 12:18:24;;;;;;;26.83;19.40;;;;;;;;;;5049335;28;20462;-66
2022/08/17 12:21:12;;;;;;;24.83;16.90;;;;;;;;;;5049532;28;20056;-66
2022/08/17 12:23:41;;;;;;;26.88;16.23;;;;;;;;;;5050567;28;20013;-65
2022/08/17 12:26:13;;;;;;;20.60;16.25;;;;;;;;;;5049594;28;20024;-66
2022/08/17 12:28:43;;;;;;;26.63;17.15;;;;;;;;;;5049258;28;20056;-66
2022/08/17 12:31:08;;;;;;;;;;;;;;;;;;5055873;28;20264;-65
2022/08/17 12:33:34;;;;;;;26.33;16.02;;;;;;;;;;5051361;28;19996;-67
2022/08/17 12:36:03;;;;;;;29.05;18.52;;;;;;;;;;5049947;28;20021;-66
2022/08/17 12:38:34;;;;;;;32.87;17.70;;;;;;;;;;5050006;28;20027;-66
2022/08/17 12:41:25;;;;;;;26.50;17.38;;;;;;;;;;5049971;28;20017;-66
2022/08/17 12:43:53;;;;;;;28.90;18.02;;;;;;;;;;5048026;28;20500;-66
2022/08/17 12:46:19;;;;;;;30.38;15.43;;;;;;;;;;5042505;28;20557;-66
2022/08/17 12:48:44;;;;;;;26.47;17.57;;;;;;;;;;5050416;28;20112;-66
2022/08/17 12:51:11;;;;;;;29.65;18.40;;;;;;;;;;5047614;28;20036;-66
2022/08/17 12:53:36;;;;;;;29.70;17.70;;;;;;;;;;5049811;28;20037;-66
2022/08/17 12:56:06;;;;;;;24.65;18.73;;;;;;;;;;5048823;28;20108;-66
2022/08/17 12:58:31;;;;;;;;;;;;;;;;;;5047594;28;20025;-66
2022/08/17 13:01:03;;;;;;;27.25;16.63;;;;;;;;;;5049241;28;19978;-66
2022/08/17 13:03:34;;;;;;;26.00;21.25;;;;;;;;;;5049501;28;20029;-66
2022/08/17 13:06:01;;;;;;;33.58;19.92;;;;;;;;;;5048682;28;20021;-66
2022/08/17 13:08:29;;;;;;;20.90;15.38;;;;;;;;;;5049292;28;20025;-66
2022/08/17 13:10:58;;;;;;;24.92;16.27;;;;;;;;;;5047321;28;20040;-66
2022/08/17 13:13:25;;;;;;;32.83;17.20;;;;;;;;;;5046372;28;20477;-64
2022/08/17 13:16:02;;;;;;;23.77;16.17;;;;;;;;;;5049202;28;20041;-66
2022/08/17 13:18:27;;;;;;;26.88;16.65;;;;;;;;;;5048889;28;20029;-66
2022/08/17 13:20:53;;;;;;;22.93;16.97;;;;;;;;;;5049056;28;20461;-66
2022/08/17 13:23:18;;;;;;;29.15;16.63;;;;;;;;;;5048609;28;20036;-66
2022/08/17 13:25:51;;;;;;;24.60;17.65;;;;;;;;;;5047071;28;20024;-66
2022/08/17 13:28:18;;;;;;;27.65;19.02;;;;;;;;;;5041043;28;20060;-65
2022/08/17 13:30:44;;;;;;;24.88;18.00;;;;;;;;;;5048182;28;20024;-66
2022/08/17 13:33:23;;;;;;;31.80;19.50;;;;;;;;;;5048285;28;20027;-66
2022/08/17 13:35:50;;;;;;;29.85;18.55;;;;;;;;;;5047560;28;20029;-66
2022/08/17 13:38:33;;;;;;;24.73;19.20;;;;;;;;;;5048847;28;20021;-64
2022/08/17 13:40:58;;;;;;;27.48;18.40;;;;;;;;;;5046579;28;20028;-65
2022/08/17 13:43:37;;;;;;;26.67;18.23;;;;;;;;;;5049408;28;20017;-65
2022/08/17 13:46:07;;;;;;;24.25;17.58;;;;;;;;;;5047121;28;20493;-66
2022/08/17 13:48:32;;;;;;;25.27;18.38;;;;;;;;;;5048844;28;20104;-66
2022/08/17 13:50:58;;;;;;;23.52;17.30;;;;;;;;;;5048127;28;20107;-66
2022/08/17 13:53:49;;;;;;;23.90;16.48;;;;;;;;;;5049609;28;20039;-66
2022/08/17 13:56:23;;;;;;;33.50;19.15;;;;;;;;;;5047791;28;20549;-66
2022/08/17 13:58:54;;;;;;;29.90;16.75;;;;;;;;;;5048582;28;20040;-65
2022/08/17 14:01:28;;;;;;;28.08;17.25;;;;;;;;;;5047809;28;20420;-65
2022/08/17 14:03:54;;;;;;;31.23;19.52;;;;;;;;;;5047404;28;20023;-66
2022/08/17 14:06:19;;;;;;;24.33;17.02;;;;;;;;;;5045816;28;20021;-65
2022/08/17 14:08:45;;;;;;;28.85;16.48;;;;;;;;;;5047688;28;20031;-65
2022/08/17 14:11:10;;;;;;;36.50;18.05;;;;;;;;;;5048057;28;20028;-66
2022/08/17 14:13:36;;;;;;;27.42;16.88;;;;;;;;;;5048611;28;20079;-64
2022/08/17 14:16:01;;;;;;;23.83;16.67;;;;;;;;;;5048619;28;20032;-65
2022/08/17 14:18:26;;;;;;;25.93;17.83;;;;;;;;;;5047825;28;20095;-64
2022/08/17 14:20:52;;;;;;;23.65;14.77;;;;;;;;;;5048527;28;20796;-64
2022/08/17 14:23:17;;;;;;;22.92;16.40;;;;;;;;;;5047209;28;20025;-64
2022/08/17 14:25:44;;;;;;;26.05;17.92;;;;;;;;;;5048265;28;20020;-65
2022/08/17 14:28:09;;;;;;;21.83;16.10;;;;;;;;;;5049495;28;20024;-65
2022/08/17 14:30:35;;;;;;;20.80;14.13;;;;;;;;;;5045412;28;20040;-65
2022/08/17 14:33:01;;;;;;;19.10;14.05;;;;;;;;;;5047053;28;20017;-65
2022/08/17 14:35:27;;;;;;;21.98;14.18;;;;;;;;;;5045866;28;20492;-65
2022/08/17 14:37:53;;;;;;;25.38;16.55;;;;;;;;;;5043831;28;20013;-65
2022/08/17 14:40:19;;;;;;;24.17;17.08;;;;;;;;;;5049098;28;20381;-65
2022/08/17 14:42:45;;;;;;;23.40;17.08;;;;;;;;;;5048420;28;20052;-66
2022/08/17 14:45:10;;;;;;;24.00;15.68;;;;;;;;;;5048349;28;20497;-66
2022/08/17 14:47:36;;;;;;;22.23;16.67;;;;;;;;;;5047812;28;20646;-66
2022/08/17 14:50:03;;;;;;;26.65;18.75;;;;;;;;;;5045510;28;20478;-66
2022/08/17 14:52:29;;;;;;;29.25;16.42;;;;;;;;;;5049169;28;20396;-66
2022/08/17 14:54:54;;;;;;;25.27;17.08;;;;;;;;;;5052088;28;20024;-66
2022/08/17 14:57:20;;;;;;;29.13;18.53;;;;;;;;;;5051958;28;20028;-65
2022/08/17 14:59:45;;;;;;;24.65;16.25;;;;;;;;;;5050446;28;20290;-65
2022/08/17 15:02:11;;;;;;;19.20;15.15;;;;;;;;;;5052310;28;20473;-65
2022/08/17 15:04:37;;;;;;;26.20;15.82;;;;;;;;;;5050161;28;20013;-65
2022/08/17 15:07:02;;;;;;;23.10;18.47;;;;;;;;;;5052603;28;20036;-65
2022/08/17 15:09:27;;;;;;;21.75;16.42;;;;;;;;;;5047992;28;20272;-66
2022/08/17 15:11:53;;;;;;;24.52;16.40;;;;;;;;;;5050794;28;20100;-66
2022/08/17 15:14:18;;;;;;;23.20;15.57;;;;;;;;;;5050481;28;20016;-65